createdAt,value
2022-08-17T00:00:48.417Z,69.14
2022-08-17T00:02:25.304Z,69.34
2022-08-17T00:03:38.532Z,69.55
2022-08-17T00:05:13.165Z,69.70
2022-08-17T00:06:17.887Z,69.99
2022-08-17T00:07:20.890Z,70.18
2022-08-17T00:08:55.600Z,70.18
2022-08-17T00:10:04.545Z,70.12
2022-08-17T00:11:07.358Z,70.19
2022-08-17T00:13:42.933Z,70.65
2022-08-17T00:14:47.710Z,70.82
2022-08-17T00:15:51.167Z,70.85
2022-08-17T00:17:49.000Z,71.13
2022-08-17T00:19:49.246Z,71.14
2022-08-17T00:20:52.190Z,71.21
2022-08-17T00:23:27.218Z,71.24
2022-08-17T00:24:36.108Z,71.24
2022-08-17T00:25:39.162Z,71.21
2022-08-17T00:27:36.426Z,71.21
2022-08-17T00:28:42.179Z,71.28
2022-08-17T00:29:45.194Z,71.27
2022-08-17T00:31:39.626Z,71.32
2022-08-17T00:33:53.156Z,71.29
2022-08-17T00:34:55.922Z,71.31
2022-08-17T00:36:30.359Z,71.37
2022-08-17T00:37:33.335Z,71.31
2022-08-17T00:38:36.439Z,71.27
2022-08-17T00:40:11.533Z,71.39
2022-08-17T00:41:32.246Z,71.41
2022-08-17T00:42:40.361Z,71.47
2022-08-17T00:44:15.366Z,71.81
2022-08-17T00:45:27.678Z,71.87
2022-08-17T00:46:30.694Z,71.83
2022-08-17T00:48:05.198Z,72.18
2022-08-17T00:49:27.715Z,72.25
2022-08-17T00:50:31.662Z,72.28
2022-08-17T00:52:11.821Z,72.37
2022-08-17T00:53:15.001Z,72.54
2022-08-17T00:54:17.739Z,72.77
2022-08-17T00:56:00.389Z,72.97
2022-08-17T00:57:03.093Z,73.31
2022-08-17T00:58:05.937Z,73.39
2022-08-17T01:00:17.821Z,74.18
2022-08-17T01:01:27.646Z,74.16
2022-08-17T01:02:30.843Z,74.26
2022-08-17T01:04:12.443Z,74.67
2022-08-17T01:05:15.297Z,74.66
2022-08-17T01:06:23.208Z,74.62
2022-08-17T01:07:58.128Z,74.64
2022-08-17T01:09:03.663Z,74.57
2022-08-17T01:10:06.359Z,74.59
2022-08-17T01:12:30.483Z,74.50
2022-08-17T01:13:38.164Z,74.44
2022-08-17T01:14:43.426Z,74.23
2022-08-17T01:16:18.017Z,74.14
2022-08-17T01:17:20.979Z,74.17
2022-08-17T01:18:23.991Z,74.16
2022-08-17T01:19:58.589Z,74.10
2022-08-17T01:21:01.503Z,74.14
2022-08-17T01:22:05.538Z,74.07
2022-08-17T01:23:40.507Z,74.08
2022-08-17T01:24:43.250Z,74.07
2022-08-17T01:25:46.144Z,74.13
2022-08-17T01:27:26.340Z,74.02
2022-08-17T01:28:58.842Z,74.13
2022-08-17T01:30:01.623Z,74.11
2022-08-17T01:32:28.198Z,74.23
2022-08-17T01:33:31.254Z,74.50
2022-08-17T01:34:50.187Z,74.54
2022-08-17T01:36:25.390Z,74.65
2022-08-17T01:37:28.144Z,74.87
2022-08-17T01:38:32.850Z,74.85
2022-08-17T01:40:07.853Z,74.98
2022-08-17T01:41:10.642Z,74.94
2022-08-17T01:42:15.830Z,74.89
2022-08-17T01:43:50.509Z,74.97
2022-08-17T01:44:53.262Z,74.93
2022-08-17T01:46:09.689Z,75.14
2022-08-17T01:47:47.304Z,75.12
2022-08-17T01:48:50.198Z,74.97
2022-08-17T01:49:52.896Z,75.07
2022-08-17T01:51:27.577Z,75.11
2022-08-17T01:52:30.600Z,75.10
2022-08-17T01:53:33.755Z,75.05
2022-08-17T01:55:08.353Z,75.08
2022-08-17T01:56:15.101Z,75.05
2022-08-17T01:57:17.816Z,75.01
2022-08-17T01:58:53.849Z,74.95
2022-08-17T01:59:56.534Z,74.92
2022-08-17T02:00:17.583Z,74.92
2022-08-17T02:01:51.307Z,74.80
2022-08-17T02:03:11.604Z,74.79
2022-08-17T02:04:53.396Z,74.77
2022-08-17T02:05:56.216Z,74.79
2022-08-17T02:08:06.406Z,74.72
2022-08-17T02:10:40.606Z,74.81
2022-08-17T02:11:57.165Z,74.76
2022-08-17T02:13:37.455Z,74.71
2022-08-17T02:15:22.122Z,74.75
2022-08-17T02:16:24.866Z,74.71
2022-08-17T02:17:35.279Z,74.69
2022-08-17T02:19:18.203Z,74.69
2022-08-17T02:20:46.957Z,74.66
2022-08-17T02:21:49.579Z,74.70
2022-08-17T02:23:24.101Z,74.68
2022-08-17T02:25:07.636Z,74.62
2022-08-17T02:26:10.354Z,74.63
2022-08-17T02:28:00.120Z,74.53
2022-08-17T02:29:02.826Z,74.60
2022-08-17T02:30:05.768Z,74.47
2022-08-17T02:32:35.204Z,74.57
2022-08-17T02:33:56.907Z,74.50
2022-08-17T02:35:07.107Z,74.28
2022-08-17T02:36:45.502Z,74.28
2022-08-17T02:37:48.242Z,74.13
2022-08-17T02:38:54.704Z,74.05
2022-08-17T02:40:42.361Z,73.92
2022-08-17T02:41:47.853Z,73.81
2022-08-17T02:42:51.210Z,73.72
2022-08-17T02:44:45.656Z,73.67
2022-08-17T02:45:48.303Z,73.78
2022-08-17T02:46:50.934Z,73.71
2022-08-17T02:48:37.333Z,73.71
2022-08-17T02:49:40.003Z,73.67
2022-08-17T02:50:53.120Z,73.63
2022-08-17T02:52:50.166Z,73.69
2022-08-17T02:54:46.457Z,73.88
2022-08-17T02:55:49.182Z,73.88
2022-08-17T02:57:23.724Z,73.96
2022-08-17T02:58:41.500Z,74.00
2022-08-17T02:59:48.771Z,73.95
2022-08-17T03:00:18.043Z,73.95
2022-08-17T03:01:21.082Z,73.98
2022-08-17T03:02:24.683Z,74.15
2022-08-17T03:03:59.312Z,74.06
2022-08-17T03:05:02.091Z,74.09
2022-08-17T03:06:04.833Z,74.11
2022-08-17T03:07:39.357Z,74.16
2022-08-17T03:08:42.247Z,74.21
2022-08-17T03:09:45.030Z,74.46
2022-08-17T03:11:20.052Z,74.44
2022-08-17T03:12:22.825Z,74.38
2022-08-17T03:13:25.522Z,74.31
2022-08-17T03:15:06.638Z,74.24
2022-08-17T03:16:09.481Z,74.24
2022-08-17T03:17:17.375Z,74.18
2022-08-17T03:19:04.770Z,74.23
2022-08-17T03:20:07.527Z,74.12
2022-08-17T03:21:10.229Z,74.06
2022-08-17T03:23:30.910Z,74.07
2022-08-17T03:24:41.899Z,73.93
2022-08-17T03:25:53.139Z,73.85
2022-08-17T03:27:45.104Z,73.85
2022-08-17T03:28:53.121Z,73.87
2022-08-17T03:29:55.981Z,73.83
2022-08-17T03:31:33.437Z,73.85
2022-08-17T03:32:39.853Z,73.78
2022-08-17T03:33:42.742Z,73.71
2022-08-17T03:35:18.495Z,73.77
2022-08-17T03:36:21.832Z,73.75
2022-08-17T03:37:27.974Z,73.88
2022-08-17T03:39:25.762Z,73.81
2022-08-17T03:41:03.971Z,73.90
2022-08-17T03:42:06.704Z,73.88
2022-08-17T03:44:02.405Z,73.86
2022-08-17T03:45:05.235Z,73.99
2022-08-17T03:46:35.592Z,73.97
2022-08-17T03:48:10.274Z,74.07
2022-08-17T03:49:13.275Z,74.18
2022-08-17T03:50:16.308Z,74.15
2022-08-17T03:51:55.237Z,74.20
2022-08-17T03:52:58.534Z,74.18
2022-08-17T03:54:01.351Z,74.11
2022-08-17T03:55:42.101Z,74.19
2022-08-17T03:56:44.906Z,74.18
2022-08-17T03:57:47.595Z,74.20
2022-08-17T03:59:28.178Z,74.34
2022-08-17T04:00:17.847Z,74.39
2022-08-17T04:01:25.740Z,74.33
2022-08-17T04:02:29.151Z,74.35
2022-08-17T04:04:04.069Z,74.52
2022-08-17T04:05:47.721Z,74.54
2022-08-17T04:06:50.861Z,74.61
2022-08-17T04:07:53.907Z,74.80
2022-08-17T04:09:29.153Z,74.82
2022-08-17T04:10:33.271Z,74.86
2022-08-17T04:11:42.701Z,74.85
2022-08-17T04:13:31.240Z,74.95
2022-08-17T04:14:34.362Z,74.97
2022-08-17T04:15:51.843Z,74.99
2022-08-17T04:17:28.129Z,75.11
2022-08-17T04:18:31.112Z,75.06
2022-08-17T04:19:36.772Z,75.19
2022-08-17T04:21:11.647Z,75.15
2022-08-17T04:22:30.581Z,75.13
2022-08-17T04:23:42.120Z,75.28
2022-08-17T04:25:18.122Z,75.32
2022-08-17T04:26:59.876Z,75.44
2022-08-17T04:28:02.801Z,75.49
2022-08-17T04:30:00.829Z,75.41
2022-08-17T04:31:03.964Z,75.61
2022-08-17T04:32:07.001Z,75.69
2022-08-17T04:34:27.851Z,75.56
2022-08-17T04:35:30.924Z,75.57
2022-08-17T04:36:35.341Z,75.65
2022-08-17T04:38:19.466Z,75.72
2022-08-17T04:39:22.643Z,75.68
2022-08-17T04:40:27.429Z,75.72
2022-08-17T04:42:02.404Z,75.84
2022-08-17T04:43:06.655Z,75.79
2022-08-17T04:44:10.791Z,75.78
2022-08-17T04:46:13.069Z,75.76
2022-08-17T04:47:18.655Z,75.78
2022-08-17T04:48:21.838Z,75.76
2022-08-17T04:50:06.167Z,75.77
2022-08-17T04:51:09.000Z,75.87
2022-08-17T04:52:29.836Z,75.98
2022-08-17T04:54:19.743Z,76.27
2022-08-17T04:55:22.837Z,76.25
2022-08-17T04:56:25.743Z,76.31
2022-08-17T04:58:00.674Z,76.50
2022-08-17T04:59:03.612Z,76.63
2022-08-17T05:00:17.747Z,76.91
2022-08-17T05:01:24.085Z,76.85
2022-08-17T05:02:27.668Z,76.87
2022-08-17T05:04:40.391Z,76.94
2022-08-17T05:05:43.522Z,77.64
2022-08-17T05:06:46.804Z,77.83
2022-08-17T05:08:23.573Z,77.96
2022-08-17T05:09:26.564Z,78.30
2022-08-17T05:10:29.905Z,78.52
2022-08-17T05:12:09.212Z,78.84
2022-08-17T05:13:12.005Z,78.84
2022-08-17T05:14:15.031Z,79.12
2022-08-17T05:15:59.870Z,79.75
2022-08-17T05:17:07.071Z,79.81
2022-08-17T05:18:14.084Z,80.02
2022-08-17T05:19:52.010Z,80.05
2022-08-17T05:20:58.260Z,79.94
2022-08-17T05:22:01.149Z,79.81
2022-08-17T05:23:54.877Z,79.62
2022-08-17T05:25:43.237Z,79.71
2022-08-17T05:27:16.769Z,79.79
2022-08-17T05:29:08.621Z,79.82
2022-08-17T05:30:21.751Z,79.85
2022-08-17T05:31:24.717Z,79.91
2022-08-17T05:33:32.058Z,79.78
2022-08-17T05:34:41.424Z,79.71
2022-08-17T05:35:45.254Z,79.96
2022-08-17T05:37:35.706Z,79.80
2022-08-17T05:38:38.813Z,80.07
2022-08-17T05:39:41.920Z,80.27
2022-08-17T05:41:19.211Z,80.29
2022-08-17T05:42:22.463Z,80.36
2022-08-17T05:43:25.337Z,80.36
2022-08-17T05:45:00.129Z,80.28
2022-08-17T05:46:36.674Z,80.20
2022-08-17T05:47:39.648Z,80.42
2022-08-17T05:49:31.695Z,80.77
2022-08-17T05:50:35.751Z,80.97
2022-08-17T05:51:38.649Z,80.93
2022-08-17T05:53:13.592Z,80.96
2022-08-17T05:54:23.455Z,80.78
2022-08-17T05:55:26.240Z,80.93
2022-08-17T05:57:21.634Z,81.15
2022-08-17T05:58:40.559Z,81.01
2022-08-17T05:59:43.573Z,80.97
2022-08-17T06:00:19.392Z,80.97
2022-08-17T06:01:34.066Z,80.88
2022-08-17T06:02:37.478Z,80.74
2022-08-17T06:04:17.743Z,80.39
2022-08-17T06:05:20.473Z,80.11
2022-08-17T06:06:25.196Z,79.89
2022-08-17T06:08:06.205Z,79.29
2022-08-17T06:09:09.175Z,79.20
2022-08-17T06:10:20.543Z,79.08
2022-08-17T06:11:59.481Z,78.89
2022-08-17T06:13:12.221Z,78.60
2022-08-17T06:14:15.300Z,78.55
2022-08-17T06:15:50.068Z,78.33
2022-08-17T06:17:20.844Z,78.21
2022-08-17T06:18:24.914Z,77.42
2022-08-17T06:19:59.924Z,77.23
2022-08-17T06:21:04.514Z,77.03
2022-08-17T06:22:16.571Z,77.09
2022-08-17T06:23:51.599Z,76.95
2022-08-17T06:24:54.577Z,76.98
2022-08-17T06:26:02.836Z,77.02
2022-08-17T06:27:53.552Z,76.85
2022-08-17T06:29:00.168Z,76.95
2022-08-17T06:30:10.786Z,77.04
2022-08-17T06:32:12.998Z,77.14
2022-08-17T06:33:15.824Z,77.21
2022-08-17T06:34:18.912Z,77.15
2022-08-17T06:35:56.245Z,77.26
2022-08-17T06:37:11.116Z,77.20
2022-08-17T06:38:38.110Z,77.45
2022-08-17T06:40:13.746Z,77.63
2022-08-17T06:41:16.925Z,77.61
2022-08-17T06:43:12.590Z,78.03
2022-08-17T06:44:57.197Z,77.85
2022-08-17T06:46:00.395Z,77.92
2022-08-17T06:47:03.422Z,77.95
2022-08-17T06:48:51.943Z,77.84
2022-08-17T06:50:00.986Z,78.11
2022-08-17T06:51:03.838Z,78.10
2022-08-17T06:52:53.113Z,78.02
2022-08-17T06:53:56.278Z,77.89
2022-08-17T06:55:00.955Z,77.81
2022-08-17T06:57:00.777Z,78.09
2022-08-17T06:58:05.788Z,78.33
2022-08-17T06:59:22.757Z,78.26
2022-08-17T07:00:17.936Z,78.12
2022-08-17T07:01:21.388Z,77.87
2022-08-17T07:02:52.720Z,77.67
2022-08-17T07:04:28.730Z,77.06
2022-08-17T07:05:35.070Z,77.13
2022-08-17T07:06:43.564Z,77.10
2022-08-17T07:08:18.528Z,77.08
2022-08-17T07:09:27.891Z,77.07
2022-08-17T07:10:30.933Z,77.27
2022-08-17T07:12:05.876Z,77.34
2022-08-17T07:13:08.856Z,77.07
2022-08-17T07:14:16.577Z,77.04
2022-08-17T07:15:56.794Z,77.16
2022-08-17T07:17:00.198Z,77.15
2022-08-17T07:18:28.335Z,77.00
2022-08-17T07:20:03.798Z,76.54
2022-08-17T07:21:07.295Z,76.71
2022-08-17T07:22:18.466Z,76.76
2022-08-17T07:24:36.494Z,76.10
2022-08-17T07:25:39.381Z,76.12
2022-08-17T07:26:42.395Z,76.21
2022-08-17T07:28:17.481Z,75.85
2022-08-17T07:29:20.452Z,75.69
2022-08-17T07:30:23.354Z,75.14
2022-08-17T07:32:11.342Z,74.91
2022-08-17T07:33:19.106Z,74.74
2022-08-17T07:34:22.089Z,74.66
2022-08-17T07:36:02.389Z,74.86
2022-08-17T07:37:10.459Z,74.80
2022-08-17T07:38:31.615Z,74.96
2022-08-17T07:40:22.545Z,75.10
2022-08-17T07:41:26.059Z,75.09
2022-08-17T07:42:56.665Z,74.72
2022-08-17T07:44:47.537Z,75.03
2022-08-17T07:45:54.181Z,74.77
2022-08-17T07:46:57.168Z,74.63
2022-08-17T07:48:32.321Z,74.42
2022-08-17T07:49:37.317Z,74.42
2022-08-17T07:50:40.051Z,74.56
2022-08-17T07:52:57.727Z,74.27
2022-08-17T07:54:19.055Z,73.80
2022-08-17T07:55:22.050Z,73.79
2022-08-17T07:56:56.704Z,73.37
2022-08-17T07:57:59.643Z,72.49
2022-08-17T07:59:02.683Z,72.21
2022-08-17T08:00:26.714Z,71.92
2022-08-17T08:01:47.693Z,72.02
2022-08-17T08:03:09.559Z,71.66
2022-08-17T08:05:08.934Z,71.57
2022-08-17T08:06:44.153Z,71.54
2022-08-17T08:07:47.101Z,71.27
2022-08-17T08:09:27.451Z,70.79
2022-08-17T08:10:31.408Z,70.92
2022-08-17T08:11:41.281Z,70.69
2022-08-17T08:13:34.315Z,70.13
2022-08-17T08:14:37.768Z,70.10
2022-08-17T08:15:40.736Z,70.26
2022-08-17T08:17:23.889Z,70.04
2022-08-17T08:19:01.877Z,69.62
2022-08-17T08:20:57.197Z,69.77
2022-08-17T08:22:32.176Z,69.85
2022-08-17T08:23:35.171Z,69.65
2022-08-17T08:24:38.203Z,69.74
2022-08-17T08:26:18.981Z,69.61
2022-08-17T08:27:23.189Z,69.30
2022-08-17T08:28:26.140Z,69.22
2022-08-17T08:30:03.170Z,69.57
2022-08-17T08:31:06.400Z,69.58
2022-08-17T08:32:09.705Z,69.49
2022-08-17T08:33:44.945Z,69.74
2022-08-17T08:35:25.224Z,69.63
2022-08-17T08:37:30.495Z,69.70
2022-08-17T08:39:14.454Z,69.55
2022-08-17T08:40:18.003Z,69.63
2022-08-17T08:41:21.074Z,69.49
2022-08-17T08:42:56.751Z,69.74
2022-08-17T08:43:59.734Z,70.07
2022-08-17T08:45:41.736Z,70.02
2022-08-17T08:47:16.776Z,70.17
2022-08-17T08:49:10.209Z,70.27
2022-08-17T08:51:19.731Z,70.18
2022-08-17T08:52:56.612Z,70.49
2022-08-17T08:54:01.061Z,70.67
2022-08-17T08:55:13.401Z,70.48
2022-08-17T08:57:32.850Z,70.38
2022-08-17T08:58:48.147Z,70.24
2022-08-17T09:00:18.539Z,70.50
2022-08-17T09:01:23.011Z,70.47
2022-08-17T09:02:26.500Z,69.84
2022-08-17T09:04:44.938Z,70.54
2022-08-17T09:06:45.279Z,70.57
2022-08-17T09:07:48.706Z,70.32
2022-08-17T09:09:26.928Z,70.97
2022-08-17T09:10:30.427Z,71.04
2022-08-17T09:11:33.727Z,70.93
2022-08-17T09:13:32.553Z,70.38
2022-08-17T09:14:52.770Z,69.99
2022-08-17T09:15:59.162Z,69.61
2022-08-17T09:17:34.654Z,69.40
2022-08-17T09:19:44.714Z,69.58
2022-08-17T09:20:55.281Z,69.82
2022-08-17T09:22:40.055Z,70.18
2022-08-17T09:23:43.743Z,70.05
2022-08-17T09:24:46.716Z,70.17
2022-08-17T09:26:21.596Z,70.48
2022-08-17T09:27:26.993Z,70.13
2022-08-17T09:28:30.581Z,69.91
2022-08-17T09:30:05.541Z,70.70
2022-08-17T09:31:10.029Z,70.32
2022-08-17T09:32:29.952Z,70.30
2022-08-17T09:34:04.717Z,69.99
2022-08-17T09:35:14.864Z,69.21
2022-08-17T09:36:29.085Z,69.61
2022-08-17T09:38:04.042Z,68.96
2022-08-17T09:39:13.018Z,68.86
2022-08-17T09:40:16.641Z,69.21
2022-08-17T09:41:55.013Z,69.49
2022-08-17T09:42:57.967Z,69.47
2022-08-17T09:44:00.769Z,69.23
2022-08-17T09:45:53.141Z,68.75
2022-08-17T09:46:56.192Z,68.27
2022-08-17T09:47:59.156Z,67.35
2022-08-17T09:49:36.462Z,67.84
2022-08-17T09:51:11.218Z,67.44
2022-08-17T09:52:14.363Z,67.39
2022-08-17T09:53:52.508Z,67.36
2022-08-17T09:55:31.802Z,67.14
2022-08-17T09:56:34.902Z,67.16
2022-08-17T09:58:48.735Z,66.76
2022-08-17T09:59:51.689Z,66.63
2022-08-17T10:00:18.061Z,66.63
2022-08-17T10:01:21.611Z,66.50
2022-08-17T10:02:25.307Z,66.91
2022-08-17T10:04:00.509Z,67.10
2022-08-17T10:05:10.246Z,67.06
2022-08-17T10:06:14.664Z,66.61
2022-08-17T10:07:51.979Z,66.72
2022-08-17T10:08:55.227Z,67.44
2022-08-17T10:09:58.226Z,66.80
2022-08-17T10:11:54.044Z,66.28
2022-08-17T10:12:58.922Z,65.84
2022-08-17T10:14:44.089Z,65.36
2022-08-17T10:16:35.588Z,66.11
2022-08-17T10:17:38.536Z,66.24
2022-08-17T10:18:42.035Z,66.75
2022-08-17T10:20:17.348Z,67.32
2022-08-17T10:21:20.396Z,67.25
2022-08-17T10:22:41.394Z,67.50
2022-08-17T10:24:24.116Z,68.05
2022-08-17T10:26:40.328Z,68.62
2022-08-17T10:28:00.266Z,68.49
2022-08-17T10:29:55.592Z,68.33
2022-08-17T10:31:35.087Z,67.87
2022-08-17T10:32:38.466Z,67.95
2022-08-17T10:34:13.475Z,67.84
2022-08-17T10:35:27.010Z,68.37
2022-08-17T10:36:29.923Z,68.35
2022-08-17T10:38:05.498Z,68.40
2022-08-17T10:39:16.232Z,68.42
2022-08-17T10:40:33.792Z,68.44
2022-08-17T10:42:08.882Z,68.33
2022-08-17T10:43:30.300Z,68.36
2022-08-17T10:45:26.593Z,68.70
2022-08-17T10:48:05.188Z,68.80
2022-08-17T10:49:10.191Z,68.27
2022-08-17T10:50:13.253Z,68.18
2022-08-17T10:51:48.340Z,68.25
2022-08-17T10:52:51.314Z,68.39
2022-08-17T10:54:00.362Z,68.34
2022-08-17T10:55:39.372Z,68.82
2022-08-17T10:56:42.220Z,68.46
2022-08-17T10:57:45.171Z,68.41
2022-08-17T10:59:20.387Z,68.44
2022-08-17T11:00:17.674Z,68.51
2022-08-17T11:01:25.430Z,68.42
2022-08-17T11:02:28.609Z,68.34
2022-08-17T11:04:03.949Z,68.48
2022-08-17T11:05:11.410Z,68.71
2022-08-17T11:06:14.407Z,68.55
2022-08-17T11:07:49.216Z,68.33
2022-08-17T11:08:52.156Z,68.24
2022-08-17T11:09:55.054Z,67.79
2022-08-17T11:11:34.864Z,67.65
2022-08-17T11:12:37.729Z,67.48
2022-08-17T11:13:40.802Z,67.33
2022-08-17T11:15:16.051Z,67.34
2022-08-17T11:16:22.697Z,66.81
2022-08-17T11:17:25.510Z,66.78
2022-08-17T11:19:02.050Z,66.34
2022-08-17T11:20:05.055Z,66.51
2022-08-17T11:21:08.159Z,66.69
2022-08-17T11:22:43.284Z,66.44
2022-08-17T11:23:46.221Z,66.89
2022-08-17T11:24:51.195Z,66.70
2022-08-17T11:26:26.406Z,66.72
2022-08-17T11:27:29.441Z,66.77
2022-08-17T11:28:32.755Z,66.12
2022-08-17T11:30:11.887Z,66.07
2022-08-17T11:31:20.896Z,66.44
2022-08-17T11:32:55.056Z,65.82
2022-08-17T11:34:34.212Z,65.78
2022-08-17T11:35:38.463Z,66.29
2022-08-17T11:36:41.709Z,65.93
2022-08-17T11:38:22.150Z,65.49
2022-08-17T11:39:26.096Z,65.19
2022-08-17T11:40:30.314Z,65.34
2022-08-17T11:42:04.967Z,65.23
2022-08-17T11:43:07.684Z,65.59
2022-08-17T11:44:11.664Z,65.56
2022-08-17T11:45:46.696Z,65.12
2022-08-17T11:46:57.340Z,65.14
2022-08-17T11:48:32.879Z,65.20
2022-08-17T11:50:08.272Z,65.36
2022-08-17T11:51:15.017Z,64.89
2022-08-17T11:52:18.750Z,64.92
2022-08-17T11:54:32.898Z,65.17
2022-08-17T11:56:12.261Z,65.14
2022-08-17T11:57:15.303Z,65.39
2022-08-17T11:58:50.645Z,65.56
2022-08-17T11:59:53.732Z,65.65
2022-08-17T12:00:18.366Z,66.00
2022-08-17T12:01:21.948Z,66.18
2022-08-17T12:02:24.970Z,66.34
2022-08-17T12:04:12.102Z,66.02
2022-08-17T12:05:17.833Z,66.16
2022-08-17T12:06:20.996Z,67.07
2022-08-17T12:08:00.666Z,66.58
2022-08-17T12:09:03.743Z,66.52
2022-08-17T12:10:07.014Z,66.66
2022-08-17T12:12:19.220Z,66.54
2022-08-17T12:13:22.923Z,66.08
2022-08-17T12:15:14.316Z,66.14
2022-08-17T12:16:51.215Z,67.09
2022-08-17T12:18:20.427Z,66.22
2022-08-17T12:19:23.480Z,66.42
2022-08-17T12:21:02.610Z,67.44
2022-08-17T12:22:06.424Z,67.74
2022-08-17T12:23:09.632Z,68.17
2022-08-17T12:24:44.769Z,68.58
2022-08-17T12:25:48.001Z,69.01
2022-08-17T12:26:51.931Z,68.49
2022-08-17T12:29:03.064Z,68.74
2022-08-17T12:30:30.862Z,67.83
2022-08-17T12:31:34.389Z,69.11
2022-08-17T12:33:09.677Z,68.95
2022-08-17T12:34:25.422Z,68.65
2022-08-17T12:35:28.452Z,68.86
2022-08-17T12:37:09.981Z,68.36
2022-08-17T12:38:37.873Z,68.26
2022-08-17T12:39:55.779Z,68.94
2022-08-17T12:41:31.407Z,69.37
2022-08-17T12:42:42.848Z,69.57
2022-08-17T12:43:45.956Z,69.32
2022-08-17T12:45:31.447Z,70.00
2022-08-17T12:46:34.414Z,69.45
2022-08-17T12:47:39.300Z,69.60
2022-08-17T12:49:14.498Z,70.08
2022-08-17T12:50:35.797Z,69.82
2022-08-17T12:51:38.903Z,69.74
2022-08-17T12:53:14.089Z,71.21
2022-08-17T12:54:17.201Z,71.03
2022-08-17T12:55:20.370Z,72.09
2022-08-17T12:57:02.526Z,72.32
2022-08-17T12:58:12.222Z,72.18
2022-08-17T12:59:18.337Z,72.91
2022-08-17T13:00:18.471Z,71.24
2022-08-17T13:01:28.218Z,71.64
2022-08-17T13:02:31.562Z,70.91
2022-08-17T13:04:06.360Z,70.70
2022-08-17T13:05:12.446Z,71.56
2022-08-17T13:06:15.617Z,72.57
2022-08-17T13:07:52.902Z,73.09
2022-08-17T13:08:57.671Z,73.20
2022-08-17T13:10:00.662Z,73.21
2022-08-17T13:11:37.499Z,73.41
2022-08-17T13:12:40.617Z,73.54
2022-08-17T13:13:43.867Z,73.39
2022-08-17T13:15:20.256Z,73.82
2022-08-17T13:16:29.335Z,74.56
2022-08-17T13:17:32.415Z,74.73
2022-08-17T13:19:07.672Z,75.46
2022-08-17T13:20:31.828Z,75.62
2022-08-17T13:21:35.044Z,75.85
2022-08-17T13:23:17.735Z,76.58
2022-08-17T13:24:43.359Z,77.06
2022-08-17T13:25:46.426Z,77.89
2022-08-17T13:27:21.579Z,77.74
2022-08-17T13:28:41.498Z,78.16
2022-08-17T13:29:44.705Z,78.23
2022-08-17T13:31:22.725Z,78.92
2022-08-17T13:32:55.892Z,79.47
2022-08-17T13:34:28.005Z,80.40
2022-08-17T13:37:03.116Z,81.04
2022-08-17T13:38:14.207Z,81.05
2022-08-17T13:39:17.338Z,81.18
2022-08-17T13:40:53.446Z,81.31
2022-08-17T13:42:01.627Z,81.83
2022-08-17T13:43:08.854Z,81.69
2022-08-17T13:44:43.407Z,81.98
2022-08-17T13:46:17.600Z,82.26
2022-08-17T13:47:20.695Z,82.26
2022-08-17T13:49:00.473Z,82.26
2022-08-17T13:50:03.494Z,82.26
2022-08-17T13:51:06.802Z,82.26
2022-08-17T13:52:44.571Z,82.26
2022-08-17T13:53:49.848Z,82.26
2022-08-17T13:54:53.042Z,82.26
2022-08-17T13:56:44.655Z,82.26
2022-08-17T13:57:47.625Z,82.26
2022-08-17T13:59:05.009Z,82.26
2022-08-17T14:00:17.639Z,82.26
2022-08-17T14:01:20.997Z,82.26
2022-08-17T14:02:27.744Z,85.04
2022-08-17T14:04:03.545Z,85.04
2022-08-17T14:05:06.646Z,85.04
2022-08-17T14:06:12.882Z,85.04
2022-08-17T14:08:23.386Z,85.04
2022-08-17T14:09:26.968Z,85.04
2022-08-17T14:10:34.727Z,85.04
2022-08-17T14:12:09.837Z,85.04
2022-08-17T14:13:13.136Z,85.04
2022-08-17T14:14:18.604Z,85.04
2022-08-17T14:16:02.255Z,85.04
2022-08-17T14:17:05.055Z,85.04
2022-08-17T14:18:17.043Z,85.04
2022-08-17T14:20:25.282Z,85.04
2022-08-17T14:21:28.621Z,85.04
2022-08-17T14:22:31.765Z,85.04
2022-08-17T14:24:06.711Z,85.04
2022-08-17T14:25:14.158Z,85.04
2022-08-17T14:26:17.223Z,85.04
2022-08-17T14:27:59.975Z,85.04
2022-08-17T14:29:03.651Z,86.58
2022-08-17T14:30:17.971Z,86.81
2022-08-17T14:32:00.261Z,86.83
2022-08-17T14:33:03.383Z,86.92
2022-08-17T14:34:06.608Z,87.10
2022-08-17T14:35:41.825Z,87.30
2022-08-17T14:36:53.879Z,87.26
2022-08-17T14:37:57.429Z,87.66
2022-08-17T14:39:32.966Z,87.74
2022-08-17T14:40:36.910Z,88.33
2022-08-17T14:41:39.979Z,88.78
2022-08-17T14:43:14.857Z,88.81
2022-08-17T14:44:17.884Z,88.98
2022-08-17T14:45:38.637Z,89.17
2022-08-17T14:47:13.792Z,89.57
2022-08-17T14:48:16.898Z,89.54
2022-08-17T14:49:19.956Z,89.27
2022-08-17T14:51:07.073Z,89.36
2022-08-17T14:52:10.148Z,89.50
2022-08-17T14:53:13.227Z,89.29
2022-08-17T14:54:51.583Z,88.77
2022-08-17T14:55:54.597Z,89.60
2022-08-17T14:57:33.615Z,89.75
2022-08-17T14:59:09.655Z,89.91
2022-08-17T15:00:18.378Z,89.68
2022-08-17T15:01:21.358Z,89.51
2022-08-17T15:02:30.517Z,89.32
2022-08-17T15:04:06.001Z,89.45
2022-08-17T15:05:09.159Z,89.62
2022-08-17T15:06:12.587Z,89.01
2022-08-17T15:07:47.472Z,89.39
2022-08-17T15:08:51.053Z,89.08
2022-08-17T15:09:57.369Z,88.96
2022-08-17T15:11:34.886Z,89.30
2022-08-17T15:12:39.993Z,89.49
2022-08-17T15:13:58.201Z,89.24
2022-08-17T15:15:32.994Z,89.19
2022-08-17T15:16:36.163Z,88.56
2022-08-17T15:17:51.297Z,89.34
2022-08-17T15:19:27.553Z,89.36
2022-08-17T15:20:30.665Z,89.56
2022-08-17T15:21:33.825Z,89.65
2022-08-17T15:23:09.830Z,89.79
2022-08-17T15:24:12.989Z,89.84
2022-08-17T15:25:16.108Z,88.87
2022-08-17T15:26:51.376Z,89.49
2022-08-17T15:28:04.546Z,89.72
2022-08-17T15:29:07.492Z,89.59
2022-08-17T15:30:42.319Z,88.66
2022-08-17T15:31:45.293Z,88.36
2022-08-17T15:33:01.219Z,88.38
2022-08-17T15:34:36.014Z,88.76
2022-08-17T15:35:39.173Z,88.84
2022-08-17T15:36:49.475Z,88.73
2022-08-17T15:38:24.834Z,87.67
2022-08-17T15:39:31.167Z,87.79
2022-08-17T15:40:36.655Z,87.67
2022-08-17T15:42:11.918Z,87.71
2022-08-17T15:43:14.837Z,87.74
2022-08-17T15:44:30.209Z,86.19
2022-08-17T15:46:10.251Z,86.86
2022-08-17T15:47:18.099Z,86.82
2022-08-17T15:48:21.247Z,87.02
2022-08-17T15:49:59.980Z,85.98
2022-08-17T15:51:03.467Z,86.02
2022-08-17T15:52:06.296Z,85.77
2022-08-17T15:53:41.330Z,86.17
2022-08-17T15:54:59.914Z,86.17
2022-08-17T15:56:09.654Z,86.17
2022-08-17T15:57:44.861Z,86.17
2022-08-17T15:58:48.194Z,86.17
2022-08-17T15:59:53.953Z,86.17
2022-08-17T16:00:17.940Z,86.17
2022-08-17T16:04:01.308Z,86.17
2022-08-17T16:05:47.296Z,86.17
2022-08-17T16:06:54.576Z,86.17
2022-08-17T16:07:58.866Z,86.17
2022-08-17T16:09:39.369Z,84.64
2022-08-17T16:10:42.752Z,85.56
2022-08-17T16:11:45.902Z,85.78
2022-08-17T16:13:28.889Z,84.95
2022-08-17T16:14:41.204Z,85.20
2022-08-17T16:15:44.205Z,85.62
2022-08-17T16:17:46.381Z,86.43
2022-08-17T16:18:53.695Z,86.11
2022-08-17T16:19:59.311Z,86.48
2022-08-17T16:21:48.854Z,86.33
2022-08-17T16:22:52.356Z,86.44
2022-08-17T16:24:00.708Z,86.22
2022-08-17T16:25:59.603Z,85.77
2022-08-17T16:27:02.498Z,85.38
2022-08-17T16:28:10.350Z,85.52
2022-08-17T16:29:59.694Z,85.56
2022-08-17T16:31:09.356Z,85.89
2022-08-17T16:32:12.423Z,86.01
2022-08-17T16:34:23.705Z,85.90
2022-08-17T16:35:26.655Z,86.36
2022-08-17T16:36:31.113Z,86.13
2022-08-17T16:38:26.035Z,86.03
2022-08-17T16:39:29.442Z,85.77
2022-08-17T16:40:35.734Z,85.72
2022-08-17T16:42:11.266Z,85.57
2022-08-17T16:43:14.236Z,85.77
2022-08-17T16:44:21.244Z,85.72
2022-08-17T16:45:57.964Z,86.38
2022-08-17T16:47:01.229Z,86.55
2022-08-17T16:48:04.472Z,86.60
2022-08-17T16:49:43.533Z,86.30
2022-08-17T16:50:58.596Z,85.60
2022-08-17T16:52:06.652Z,84.85
2022-08-17T16:54:05.221Z,84.48
2022-08-17T16:55:14.501Z,84.62
2022-08-17T16:56:17.494Z,84.47
2022-08-17T16:57:56.103Z,85.08
2022-08-17T16:58:59.318Z,85.26
2022-08-17T17:00:17.951Z,85.52
2022-08-17T17:01:21.224Z,85.13
2022-08-17T17:02:24.466Z,84.60
2022-08-17T17:04:11.791Z,84.08
2022-08-17T17:05:16.099Z,84.01
2022-08-17T17:06:19.274Z,84.14
2022-08-17T17:07:58.204Z,83.94
2022-08-17T17:09:01.349Z,83.32
2022-08-17T17:10:04.374Z,83.28
2022-08-17T17:11:41.224Z,83.71
2022-08-17T17:13:09.983Z,83.61
2022-08-17T17:14:13.018Z,83.74
2022-08-17T17:15:51.491Z,84.19
2022-08-17T17:16:54.433Z,84.53